Time;durP1;ratioP1;P1;durP2;ratioP2;P2;SDS_P1;SDS_P2;PMS_P1;PMS_P2;Temp;Humidity;BMP_temperature;BMP_pressure;BME280_temperature;BME280_humidity;BME280_pressure;Samples;Min_cycle;Max_cycle;Signal;HPM_P1;HPM_P2
2023/07/02 00:02:54;;;;;;;11.68;5.57;;;;;;;;;;10621345;28;20030;-72
2023/07/02 00:07:54;;;;;;;12.00;6.33;;;;;;;;;;10593100;28;20019;-72
2023/07/02 00:12:54;;;;;;;11.32;5.32;;;;;;;;;;10620095;28;20330;-72
2023/07/02 00:17:57;;;;;;;12.40;5.93;;;;;;;;;;10564982;28;20071;-72
2023/07/02 00:22:57;;;;;;;11.73;5.60;;;;;;;;;;10621499;28;20268;-71
2023/07/02 00:27:57;;;;;;;11.90;5.27;;;;;;;;;;10621158;28;20015;-73
2023/07/02 00:32:57;;;;;;;12.65;5.95;;;;;;;;;;10621582;28;20322;-73
2023/07/02 00:37:58;;;;;;;11.27;5.82;;;;;;;;;;10620664;28;20108;-71
2023/07/02 00:42:58;;;;;;;8.65;5.57;;;;;;;;;;10621076;28;20046;-72
2023/07/02 00:47:58;;;;;;;18.50;5.25;;;;;;;;;;10625326;27;20317;-73
2023/07/02 00:52:59;;;;;;;11.65;5.97;;;;;;;;;;10546255;27;20039;-73
2023/07/02 00:57:59;;;;;;;10.73;5.60;;;;;;;;;;10545390;28;20019;-73
2023/07/02 01:02:59;;;;;;;16.30;6.85;;;;;;;;;;10623148;27;20152;-71
2023/07/02 01:08:00;;;;;;;14.68;8.20;;;;;;;;;;10617392;27;20061;-72
2023/07/02 01:13:03;;;;;;;14.60;7.72;;;;;;;;;;10542722;28;20218;-72
2023/07/02 01:18:05;;;;;;;17.60;8.48;;;;;;;;;;10591548;27;20044;-72
2023/07/02 01:23:05;;;;;;;15.38;7.45;;;;;;;;;;10626662;27;20027;-72
2023/07/02 01:28:05;;;;;;;20.23;8.83;;;;;;;;;;10566918;27;20073;-72
2023/07/02 01:33:06;;;;;;;16.47;8.57;;;;;;;;;;10583579;28;20292;-72
2023/07/02 01:38:06;;;;;;;15.60;8.27;;;;;;;;;;10617863;27;20306;-72
2023/07/02 01:43:06;;;;;;;19.92;6.95;;;;;;;;;;10603072;27;20084;-72
2023/07/02 01:48:06;;;;;;;14.93;6.63;;;;;;;;;;10602169;27;20252;-71
2023/07/02 01:53:07;;;;;;;14.48;7.25;;;;;;;;;;10607860;27;20075;-72
2023/07/02 01:58:07;;;;;;;12.68;6.78;;;;;;;;;;10578485;27;20044;-72
2023/07/02 02:03:07;;;;;;;14.65;6.95;;;;;;;;;;10626232;27;20182;-71
2023/07/02 02:08:07;;;;;;;14.48;6.88;;;;;;;;;;10624079;27;20019;-72
2023/07/02 02:13:08;;;;;;;13.75;7.32;;;;;;;;;;10606311;27;20027;-72
2023/07/02 02:18:08;;;;;;;17.30;8.77;;;;;;;;;;10606748;27;20031;-72
2023/07/02 02:23:08;;;;;;;18.17;9.67;;;;;;;;;;10625098;27;20178;-72
2023/07/02 02:28:08;;;;;;;19.13;8.13;;;;;;;;;;10622557;27;20026;-72
2023/07/02 02:33:09;;;;;;;15.25;7.50;;;;;;;;;;10561223;28;20182;-72
2023/07/02 02:38:09;;;;;;;17.48;8.35;;;;;;;;;;10588565;27;20340;-71
2023/07/02 02:43:09;;;;;;;15.25;7.80;;;;;;;;;;10623748;27;20019;-72
2023/07/02 02:48:10;;;;;;;16.35;9.02;;;;;;;;;;10623943;27;20023;-72
2023/07/02 02:53:10;;;;;;;13.82;7.50;;;;;;;;;;10623524;27;20096;-72
2023/07/02 02:58:10;;;;;;;15.82;8.70;;;;;;;;;;10623165;27;20217;-72
2023/07/02 03:03:12;;;;;;;16.93;8.70;;;;;;;;;;10623931;27;20056;-73
2023/07/02 03:08:12;;;;;;;20.75;8.48;;;;;;;;;;10605156;27;20130;-72
2023/07/02 03:13:12;;;;;;;23.10;7.97;;;;;;;;;;10594767;27;20016;-72
2023/07/02 03:18:13;;;;;;;11.40;6.57;;;;;;;;;;10561678;27;20015;-71
2023/07/02 03:23:13;;;;;;;13.88;7.78;;;;;;;;;;10617072;27;20019;-72
2023/07/02 03:28:13;;;;;;;16.58;6.88;;;;;;;;;;10580727;28;20029;-72
2023/07/02 03:33:13;;;;;;;15.57;7.80;;;;;;;;;;10622018;27;20106;-73
2023/07/02 03:38:14;;;;;;;13.82;7.68;;;;;;;;;;10622323;27;20305;-73
2023/07/02 03:43:15;;;;;;;14.00;7.88;;;;;;;;;;10623515;28;20356;-73
2023/07/02 03:48:15;;;;;;;19.15;7.85;;;;;;;;;;10622069;28;20034;-71
2023/07/02 03:53:15;;;;;;;14.23;7.40;;;;;;;;;;10602877;28;20034;-72
2023/07/02 03:58:15;;;;;;;14.13;7.20;;;;;;;;;;10541245;28;20033;-72
2023/07/02 04:03:16;;;;;;;20.40;8.68;;;;;;;;;;10621400;28;20035;-73
2023/07/02 04:08:16;;;;;;;14.65;7.63;;;;;;;;;;10613123;28;20047;-72
2023/07/02 04:13:17;;;;;;;17.90;8.63;;;;;;;;;;10570101;28;20092;-72
2023/07/02 04:18:17;;;;;;;17.23;7.77;;;;;;;;;;10620798;28;20017;-72
2023/07/02 04:23:17;;;;;;;13.32;6.85;;;;;;;;;;10602366;27;20187;-71
2023/07/02 04:28:18;;;;;;;17.17;8.07;;;;;;;;;;10628638;27;20055;-72
2023/07/02 04:33:19;;;;;;;16.08;8.30;;;;;;;;;;10624518;27;20264;-70
2023/07/02 04:38:19;;;;;;;15.07;8.10;;;;;;;;;;10578824;27;20047;-69
2023/07/02 04:43:20;;;;;;;21.58;8.70;;;;;;;;;;10559480;28;20222;-70
2023/07/02 04:48:20;;;;;;;15.65;8.50;;;;;;;;;;10564716;28;20385;-70
2023/07/02 04:53:20;;;;;;;18.07;8.70;;;;;;;;;;10558960;28;20234;-72
2023/07/02 04:58:21;;;;;;;16.27;9.07;;;;;;;;;;10570159;28;20024;-70
2023/07/02 05:03:21;;;;;;;17.20;8.05;;;;;;;;;;10556354;28;20027;-72
2023/07/02 05:08:21;;;;;;;18.65;8.18;;;;;;;;;;10560545;28;20364;-72
2023/07/02 05:13:22;;;;;;;21.93;10.30;;;;;;;;;;10559136;28;20028;-70
2023/07/02 05:18:22;;;;;;;16.25;8.70;;;;;;;;;;10553600;28;20341;-72
2023/07/02 05:23:22;;;;;;;19.67;8.60;;;;;;;;;;10568481;28;20325;-72
2023/07/02 05:28:23;;;;;;;17.07;7.90;;;;;;;;;;10565546;28;20316;-72
2023/07/02 05:33:24;;;;;;;12.50;7.43;;;;;;;;;;10541855;28;20322;-72
2023/07/02 05:38:24;;;;;;;15.25;8.07;;;;;;;;;;10558465;28;20128;-72
2023/07/02 05:43:24;;;;;;;16.50;8.83;;;;;;;;;;10560137;28;20277;-72
2023/07/02 05:48:24;;;;;;;13.60;7.28;;;;;;;;;;10549989;28;20020;-71
2023/07/02 05:53:25;;;;;;;13.35;6.68;;;;;;;;;;10558858;28;20298;-70
2023/07/02 05:58:25;;;;;;;17.85;8.73;;;;;;;;;;10551418;28;20075;-72
2023/07/02 06:03:25;;;;;;;12.15;6.97;;;;;;;;;;10561616;28;20049;-71
2023/07/02 06:08:26;;;;;;;17.92;7.95;;;;;;;;;;10557984;28;20020;-71
2023/07/02 06:13:26;;;;;;;18.77;7.33;;;;;;;;;;10556267;28;20298;-72
2023/07/02 06:18:26;;;;;;;20.73;6.75;;;;;;;;;;10561768;28;20015;-71
2023/07/02 06:23:27;;;;;;;11.93;5.80;;;;;;;;;;10542357;28;20020;-72
2023/07/02 06:28:27;;;;;;;16.17;6.07;;;;;;;;;;10542242;28;20183;-71
2023/07/02 06:33:28;;;;;;;13.68;6.88;;;;;;;;;;10550448;28;20368;-71
2023/07/02 06:38:28;;;;;;;15.65;8.05;;;;;;;;;;10572130;28;20236;-72
2023/07/02 06:43:28;;;;;;;11.55;6.95;;;;;;;;;;10575392;28;20035;-72
2023/07/02 06:48:28;;;;;;;12.37;7.53;;;;;;;;;;10571793;28;20079;-71
2023/07/02 06:53:29;;;;;;;18.88;7.25;;;;;;;;;;10571903;28;20366;-69
2023/07/02 06:58:30;;;;;;;17.15;7.47;;;;;;;;;;10571544;28;20012;-68
2023/07/02 07:03:30;;;;;;;15.70;6.72;;;;;;;;;;10573348;28;20031;-70
2023/07/02 07:08:31;;;;;;;16.63;6.95;;;;;;;;;;10573769;28;20020;-70
2023/07/02 07:13:31;;;;;;;14.07;6.63;;;;;;;;;;10574932;28;20032;-79
2023/07/02 07:18:31;;;;;;;27.70;7.93;;;;;;;;;;10576783;28;20038;-72
2023/07/02 07:23:31;;;;;;;17.50;7.20;;;;;;;;;;10575133;28;20079;-79
2023/07/02 07:28:32;;;;;;;17.33;7.82;;;;;;;;;;10554990;28;20036;-78
2023/07/02 07:33:32;;;;;;;12.80;6.43;;;;;;;;;;10556302;28;20062;-69
2023/07/02 07:38:32;;;;;;;14.38;7.25;;;;;;;;;;10573574;28;20031;-75
2023/07/02 07:43:33;;;;;;;14.07;6.38;;;;;;;;;;10573478;28;20219;-69
2023/07/02 07:48:33;;;;;;;12.05;6.57;;;;;;;;;;10574199;28;20032;-72
2023/07/02 07:53:37;;;;;;;14.43;7.00;;;;;;;;;;10572758;28;20729;-73
2023/07/02 07:58:37;;;;;;;10.38;6.22;;;;;;;;;;10580164;28;20341;-74
2023/07/02 08:03:38;;;;;;;13.43;6.60;;;;;;;;;;10560502;28;20023;-75
2023/07/02 08:08:38;;;;;;;12.77;5.95;;;;;;;;;;10576869;28;20333;-74
2023/07/02 08:13:38;;;;;;;13.73;5.88;;;;;;;;;;10579542;28;20061;-74
2023/07/02 08:18:39;;;;;;;9.60;5.78;;;;;;;;;;10578939;28;20024;-75
2023/07/02 08:23:41;;;;;;;10.77;5.03;;;;;;;;;;10580982;28;20379;-76
2023/07/02 08:28:42;;;;;;;15.98;6.57;;;;;;;;;;10580525;28;20073;-77
2023/07/02 08:33:42;;;;;;;11.15;5.53;;;;;;;;;;10562905;28;20057;-77
2023/07/02 08:38:43;;;;;;;9.10;5.28;;;;;;;;;;10567126;28;20214;-80
2023/07/02 08:43:43;;;;;;;10.65;4.95;;;;;;;;;;10560152;28;20309;-74
2023/07/02 08:48:44;;;;;;;10.30;4.50;;;;;;;;;;10580767;28;20035;-75
2023/07/02 08:53:44;;;;;;;7.60;4.47;;;;;;;;;;10576147;28;20285;-73
2023/07/02 08:58:45;;;;;;;7.33;4.87;;;;;;;;;;10578488;28;20066;-74
2023/07/02 09:03:45;;;;;;;9.53;4.50;;;;;;;;;;10579751;28;20298;-70
2023/07/02 09:08:45;;;;;;;10.10;3.87;;;;;;;;;;10576536;28;20364;-75
2023/07/02 09:13:46;;;;;;;7.63;4.43;;;;;;;;;;10580049;28;20024;-74
2023/07/02 09:18:55;;;;;;;8.55;4.00;;;;;;;;;;10577559;28;20023;-75
2023/07/02 09:23:55;;;;;;;10.45;5.15;;;;;;;;;;10561335;28;20047;-82
2023/07/02 09:29:04;;;;;;;8.13;5.03;;;;;;;;;;10570828;28;20027;-77
2023/07/02 09:34:05;;;;;;;11.48;4.80;;;;;;;;;;10571028;28;20049;-77
2023/07/02 09:39:05;;;;;;;9.07;5.00;;;;;;;;;;10576566;28;21645;-76
2023/07/02 09:44:07;;;;;;;8.30;5.18;;;;;;;;;;10577822;28;20022;-76
2023/07/02 09:49:10;;;;;;;12.20;4.55;;;;;;;;;;10578117;28;20087;-76
2023/07/02 09:54:11;;;;;;;8.40;4.20;;;;;;;;;;10574725;28;20391;-77
2023/07/02 09:59:11;;;;;;;11.98;4.80;;;;;;;;;;10577065;28;20027;-78
2023/07/02 10:04:15;;;;;;;9.02;4.25;;;;;;;;;;10560503;28;20103;-77
2023/07/02 10:09:15;;;;;;;7.38;4.30;;;;;;;;;;10575433;28;20049;-72
2023/07/02 10:14:15;;;;;;;6.10;3.90;;;;;;;;;;10576913;28;20342;-72
2023/07/02 10:19:16;;;;;;;6.83;3.87;;;;;;;;;;10576202;28;20511;-69
2023/07/02 10:24:17;;;;;;;5.57;3.70;;;;;;;;;;10570507;28;20034;-76
2023/07/02 10:29:21;;;;;;;4.90;3.50;;;;;;;;;;10575128;28;20217;-78
2023/07/02 10:34:30;;;;;;;7.47;3.25;;;;;;;;;;10576416;28;20326;-70
2023/07/02 10:39:31;;;;;;;7.00;3.50;;;;;;;;;;10545646;28;20024;-71
2023/07/02 10:44:31;;;;;;;5.60;3.30;;;;;;;;;;10548291;28;20084;-71
2023/07/02 10:49:32;;;;;;;6.15;3.03;;;;;;;;;;10569815;28;20040;-75
2023/07/02 10:54:40;;;;;;;5.32;3.47;;;;;;;;;;10568823;28;21278;-75
2023/07/02 10:59:40;;;;;;;5.40;2.83;;;;;;;;;;10571702;28;20030;-76
2023/07/02 11:04:40;;;;;;;7.73;2.70;;;;;;;;;;10571567;28;20012;-73
2023/07/02 11:09:49;;;;;;;5.47;2.83;;;;;;;;;;10572404;28;20051;-75
2023/07/02 11:14:49;;;;;;;7.40;3.72;;;;;;;;;;10571745;28;20027;-75
2023/07/02 11:19:50;;;;;;;5.90;3.73;;;;;;;;;;10546569;28;20338;-74
2023/07/02 11:24:50;;;;;;;8.73;4.38;;;;;;;;;;10563315;28;20020;-75
2023/07/02 11:29:58;;;;;;;6.70;4.05;;;;;;;;;;10551170;28;20031;-75
2023/07/02 11:34:59;;;;;;;7.72;4.38;;;;;;;;;;10574319;22;20111;-81
2023/07/02 11:39:59;;;;;;;7.23;4.23;;;;;;;;;;10471168;28;20074;-79
2023/07/02 11:45:01;;;;;;;7.03;4.00;;;;;;;;;;10473966;28;20041;-81
2023/07/02 11:50:02;;;;;;;10.73;4.00;;;;;;;;;;10450344;28;20686;-88
2023/07/02 11:55:03;;;;;;;9.70;3.90;;;;;;;;;;10489851;28;20025;-76
2023/07/02 12:00:04;;;;;;;9.10;4.50;;;;;;;;;;10528884;28;20304;-78
2023/07/02 12:10:19;;;;;;;7.45;3.90;;;;;;;;;;10573900;22;20250;-66
2023/07/02 12:15:19;;;;;;;8.45;3.72;;;;;;;;;;10536841;28;20016;-71
2023/07/02 12:20:20;;;;;;;6.07;3.50;;;;;;;;;;10537743;28;20232;-73
2023/07/02 12:30:57;;;;;;;7.65;3.55;;;;;;;;;;10539871;28;20020;-71
2023/07/02 12:35:59;;;;;;;8.10;4.00;;;;;;;;;;10540162;28;20012;-75
2023/07/02 12:46:37;;;;;;;6.83;3.57;;;;;;;;;;10547656;28;20008;-75
2023/07/02 12:51:37;;;;;;;6.65;4.30;;;;;;;;;;10547672;28;20047;-75
2023/07/02 12:56:37;;;;;;;7.53;3.83;;;;;;;;;;10547716;28;20088;-75
2023/07/02 13:01:38;;;;;;;6.15;3.85;;;;;;;;;;10547582;28;20016;-70
2023/07/02 13:06:40;;;;;;;7.68;4.15;;;;;;;;;;10545628;28;20040;-72
2023/07/02 13:17:18;;;;;;;8.87;4.53;;;;;;;;;;10546365;28;20012;-72
2023/07/02 13:22:18;;;;;;;14.07;5.45;;;;;;;;;;10545976;28;20362;-73
2023/07/02 13:32:56;;;;;;;9.55;4.95;;;;;;;;;;10545213;28;20020;-76
2023/07/02 13:37:59;;;;;;;7.57;4.60;;;;;;;;;;10545309;28;20020;-72
2023/07/02 13:59:53;;;;;;;9.00;4.28;;;;;;;;;;10543326;28;20044;-73
2023/07/02 14:04:53;;;;;;;11.23;5.45;;;;;;;;;;10544046;28;20175;-72
2023/07/02 14:09:55;;;;;;;11.18;5.45;;;;;;;;;;10544117;28;20051;-72
2023/07/02 14:20:33;;;;;;;9.97;5.07;;;;;;;;;;10543380;28;20047;-72
2023/07/02 14:25:33;;;;;;;7.88;4.60;;;;;;;;;;10543208;28;20016;-73
2023/07/02 14:36:11;;;;;;;9.48;5.57;;;;;;;;;;10543073;28;20374;-74
2023/07/02 14:41:11;;;;;;;10.80;4.67;;;;;;;;;;10542936;28;20016;-72
2023/07/02 14:51:49;;;;;;;12.97;6.30;;;;;;;;;;10542181;28;20322;-73
2023/07/02 15:02:28;;;;;;;15.50;9.25;;;;;;;;;;10542049;28;20099;-72
2023/07/02 15:07:28;;;;;;;14.93;6.55;;;;;;;;;;10541915;28;20044;-71
2023/07/02 15:23:44;;;;;;;11.87;6.23;;;;;;;;;;10542580;28;20274;-72
2023/07/02 15:34:22;;;;;;;12.73;6.87;;;;;;;;;;10541026;28;20027;-70
2023/07/02 15:39:22;;;;;;;10.33;5.17;;;;;;;;;;10541434;28;20257;-72
2023/07/02 15:49:57;;;;;;;11.07;6.30;;;;;;;;;;10541074;28;20383;-71
2023/07/02 15:54:57;;;;;;;13.65;6.63;;;;;;;;;;10539452;28;20024;-72
2023/07/02 15:59:57;;;;;;;7.93;5.27;;;;;;;;;;10541038;28;20106;-72
2023/07/02 16:10:39;;;;;;;12.17;6.40;;;;;;;;;;10537131;28;20043;-75
2023/07/02 16:15:40;;;;;;;16.70;6.78;;;;;;;;;;10538393;28;20032;-74
2023/07/02 16:20:40;;;;;;;12.27;6.95;;;;;;;;;;10544992;28;20083;-75
2023/07/02 16:31:19;;;;;;;11.18;7.28;;;;;;;;;;10545120;28;20020;-74
2023/07/02 16:36:19;;;;;;;14.13;7.20;;;;;;;;;;10545811;28;20225;-75
2023/07/02 16:46:57;;;;;;;12.20;6.23;;;;;;;;;;10546897;28;20036;-75
2023/07/02 16:51:58;;;;;;;18.67;9.70;;;;;;;;;;10548547;28;20191;-72
2023/07/02 16:56:59;;;;;;;14.47;5.63;;;;;;;;;;10546558;28;20043;-75
2023/07/02 17:07:37;;;;;;;10.15;6.03;;;;;;;;;;10545342;28;20024;-74
2023/07/02 17:23:52;;;;;;;10.17;5.70;;;;;;;;;;10544075;28;20083;-74
2023/07/02 17:28:53;;;;;;;12.43;6.40;;;;;;;;;;10545931;28;20012;-74
2023/07/02 17:39:31;;;;;;;10.50;5.90;;;;;;;;;;10545245;28;20016;-74
2023/07/02 17:44:33;;;;;;;12.50;6.63;;;;;;;;;;10545450;28;20120;-74
2023/07/02 17:49:35;;;;;;;11.43;7.03;;;;;;;;;;10544827;28;20237;-74
2023/07/02 17:54:39;;;;;;;13.60;7.03;;;;;;;;;;10544900;28;20020;-75
2023/07/02 17:59:39;;;;;;;13.95;7.00;;;;;;;;;;10543181;28;20313;-73
2023/07/02 18:04:40;;;;;;;12.93;6.77;;;;;;;;;;10544127;28;20085;-74
2023/07/02 18:09:43;;;;;;;11.93;6.20;;;;;;;;;;10543102;28;20121;-74
2023/07/02 18:14:44;;;;;;;12.73;6.60;;;;;;;;;;10544296;28;20037;-75
2023/07/02 18:19:44;;;;;;;13.85;7.07;;;;;;;;;;10543612;28;20175;-73
2023/07/02 18:24:45;;;;;;;10.67;5.53;;;;;;;;;;10543329;28;20195;-74
2023/07/02 18:29:47;;;;;;;9.23;6.03;;;;;;;;;;10543381;28;20024;-73
2023/07/02 18:34:47;;;;;;;10.52;6.00;;;;;;;;;;10541874;28;20035;-74
2023/07/02 18:39:47;;;;;;;12.67;6.20;;;;;;;;;;10540437;28;20094;-75
2023/07/02 18:44:49;;;;;;;11.27;6.30;;;;;;;;;;10542592;28;20054;-76
2023/07/02 18:49:50;;;;;;;17.30;6.65;;;;;;;;;;10550099;28;20306;-76
2023/07/02 18:54:50;;;;;;;14.23;6.30;;;;;;;;;;10540296;28;20303;-74
2023/07/02 18:59:52;;;;;;;10.27;6.30;;;;;;;;;;10541519;28;20043;-71
2023/07/02 19:10:38;;;;;;;12.48;6.70;;;;;;;;;;10541072;28;20051;-70
2023/07/02 19:15:39;;;;;;;14.00;7.95;;;;;;;;;;10538059;28;20016;-71
2023/07/02 19:20:39;;;;;;;13.88;8.38;;;;;;;;;;10538057;28;20020;-74
2023/07/02 19:25:40;;;;;;;17.45;9.50;;;;;;;;;;10538844;28;20016;-74
2023/07/02 19:30:40;;;;;;;14.85;8.45;;;;;;;;;;10538957;28;20105;-72
2023/07/02 19:41:18;;;;;;;15.50;8.50;;;;;;;;;;10540610;28;20015;-71
2023/07/02 19:57:33;;;;;;;16.23;10.63;;;;;;;;;;10548830;28;20040;-72
2023/07/02 20:08:11;;;;;;;17.07;9.87;;;;;;;;;;10548986;28;20044;-74
2023/07/02 20:18:50;;;;;;;18.10;9.37;;;;;;;;;;10548406;28;20071;-73
2023/07/02 20:23:50;;;;;;;17.65;9.45;;;;;;;;;;10547853;28;20031;-76
2023/07/02 20:34:31;;;;;;;15.70;9.95;;;;;;;;;;10547910;28;20226;-73
2023/07/02 20:39:32;;;;;;;13.80;8.88;;;;;;;;;;10548963;28;20023;-72
2023/07/02 20:55:54;;;;;;;16.50;9.88;;;;;;;;;;10547806;28;20352;-72
2023/07/02 21:01:04;;;;;;;16.03;9.10;;;;;;;;;;10547749;28;20088;-73
2023/07/02 21:11:42;;;;;;;18.52;10.65;;;;;;;;;;10545391;28;20044;-74
2023/07/02 21:16:42;;;;;;;15.95;10.23;;;;;;;;;;10548300;28;20024;-73
2023/07/02 21:21:45;;;;;;;20.13;12.10;;;;;;;;;;10547226;28;20023;-73
2023/07/02 21:32:24;;;;;;;18.23;10.98;;;;;;;;;;10546644;28;20334;-73
2023/07/02 21:37:24;;;;;;;19.95;12.52;;;;;;;;;;10547303;28;20233;-73
2023/07/02 21:48:02;;;;;;;21.10;13.68;;;;;;;;;;10545682;28;20004;-73
2023/07/02 21:53:02;;;;;;;22.38;14.75;;;;;;;;;;10546487;28;20256;-74
2023/07/02 22:03:40;;;;;;;18.98;12.52;;;;;;;;;;10545293;28;20008;-74
2023/07/02 22:08:41;;;;;;;19.17;12.25;;;;;;;;;;10545042;28;20039;-74
2023/07/02 22:24:56;;;;;;;20.77;11.40;;;;;;;;;;10547257;28;20302;-74
2023/07/02 22:29:57;;;;;;;17.60;11.73;;;;;;;;;;10544244;28;20224;-73
2023/07/02 22:34:57;;;;;;;17.67;11.52;;;;;;;;;;10543929;28;20016;-73
2023/07/02 22:39:57;;;;;;;19.27;11.70;;;;;;;;;;10543415;28;20306;-73
2023/07/02 22:56:15;;;;;;;20.92;13.07;;;;;;;;;;10544992;28;20012;-73
2023/07/02 23:06:53;;;;;;;22.97;14.40;;;;;;;;;;10552602;28;20012;-73
2023/07/02 23:11:53;;;;;;;21.42;14.82;;;;;;;;;;10542307;28;20233;-73
2023/07/02 23:22:32;;;;;;;24.75;15.60;;;;;;;;;;10544197;28;20310;-73
2023/07/02 23:33:10;;;;;;;23.17;16.42;;;;;;;;;;10542229;28;20032;-74
2023/07/02 23:38:10;;;;;;;22.37;15.87;;;;;;;;;;10540561;28;20012;-74
2023/07/02 23:43:11;;;;;;;26.15;17.38;;;;;;;;;;10542480;28;20079;-74
2023/07/02 23:53:48;;;;;;;27.13;17.10;;;;;;;;;;10542672;28;20309;-74
2023/07/02 23:58:49;;;;;;;27.63;19.50;;;;;;;;;;10541731;28;20011;-73
